sensor_id;sensor_type;location;lat;lon;timestamp;pressure;altitude;pressure_sealevel;temperature;humidity
9538;BME280;4807;48.024;11.726;2023-03-19T00:01:03;94629.38;;;5.49;77.46
9538;BME280;4807;48.024;11.726;2023-03-19T00:04:14;94629.94;;;5.59;77.37
9538;BME280;4807;48.024;11.726;2023-03-19T00:07:23;94621.50;;;5.41;77.89
9538;BME280;4807;48.024;11.726;2023-03-19T00:10:31;94633.66;;;5.27;78.33
9538;BME280;4807;48.024;11.726;2023-03-19T00:13:39;94627.06;;;5.23;78.70
9538;BME280;4807;48.024;11.726;2023-03-19T00:16:48;94635.00;;;5.23;78.19
9538;BME280;4807;48.024;11.726;2023-03-19T00:19:57;94626.72;;;5.03;78.70
9538;BME280;4807;48.024;11.726;2023-03-19T00:23:06;94624.16;;;5.18;77.99
9538;BME280;4807;48.024;11.726;2023-03-19T00:26:15;94631.31;;;5.32;77.36
9538;BME280;4807;48.024;11.726;2023-03-19T00:29:23;94635.97;;;5.45;76.87
9538;BME280;4807;48.024;11.726;2023-03-19T00:32:32;94634.59;;;5.34;76.89
9538;BME280;4807;48.024;11.726;2023-03-19T00:35:43;94631.47;;;5.08;77.25
9538;BME280;4807;48.024;11.726;2023-03-19T00:38:51;94633.56;;;4.89;78.39
9538;BME280;4807;48.024;11.726;2023-03-19T00:42:00;94645.53;;;5.00;78.71
9538;BME280;4807;48.024;11.726;2023-03-19T00:45:10;94638.75;;;5.06;78.19
9538;BME280;4807;48.024;11.726;2023-03-19T00:48:19;94653.09;;;5.03;78.04
9538;BME280;4807;48.024;11.726;2023-03-19T00:51:29;94655.34;;;5.14;77.84
9538;BME280;4807;48.024;11.726;2023-03-19T00:54:37;94661.97;;;5.10;77.43
9538;BME280;4807;48.024;11.726;2023-03-19T00:57:46;94656.59;;;4.95;78.29
9538;BME280;4807;48.024;11.726;2023-03-19T01:00:55;94661.53;;;4.98;78.17
9538;BME280;4807;48.024;11.726;2023-03-19T01:04:03;94658.16;;;4.82;78.62
9538;BME280;4807;48.024;11.726;2023-03-19T01:07:14;94659.00;;;4.82;78.82
9538;BME280;4807;48.024;11.726;2023-03-19T01:10:23;94658.75;;;4.69;79.91
9538;BME280;4807;48.024;11.726;2023-03-19T01:13:31;94649.47;;;4.73;79.31
9538;BME280;4807;48.024;11.726;2023-03-19T01:16:40;94655.38;;;4.83;79.41
9538;BME280;4807;48.024;11.726;2023-03-19T01:19:48;94653.38;;;4.85;79.10
9538;BME280;4807;48.024;11.726;2023-03-19T01:22:58;94654.53;;;4.83;79.64
9538;BME280;4807;48.024;11.726;2023-03-19T01:26:07;94650.81;;;4.69;80.13
9538;BME280;4807;48.024;11.726;2023-03-19T01:29:16;94650.81;;;4.69;79.82
9538;BME280;4807;48.024;11.726;2023-03-19T01:32:25;94647.81;;;4.72;79.34
9538;BME280;4807;48.024;11.726;2023-03-19T01:35:52;94646.75;;;4.58;79.89
9538;BME280;4807;48.024;11.726;2023-03-19T01:39:06;94639.28;;;4.70;78.78
9538;BME280;4807;48.024;11.726;2023-03-19T01:42:16;94638.59;;;4.76;78.85
9538;BME280;4807;48.024;11.726;2023-03-19T01:45:54;94635.31;;;4.74;78.97
9538;BME280;4807;48.024;11.726;2023-03-19T01:49:22;94631.53;;;4.69;79.13
9538;BME280;4807;48.024;11.726;2023-03-19T01:52:44;94631.75;;;4.59;79.34
9538;BME280;4807;48.024;11.726;2023-03-19T01:56:10;94636.69;;;4.62;79.12
9538;BME280;4807;48.024;11.726;2023-03-19T01:59:40;94639.78;;;4.66;78.73
9538;BME280;4807;48.024;11.726;2023-03-19T02:03:10;94651.81;;;4.68;78.22
9538;BME280;4807;48.024;11.726;2023-03-19T02:06:46;94655.69;;;4.80;78.38
9538;BME280;4807;48.024;11.726;2023-03-19T02:09:55;94655.78;;;4.64;77.81
9538;BME280;4807;48.024;11.726;2023-03-19T02:13:06;94661.47;;;4.45;78.29
9538;BME280;4807;48.024;11.726;2023-03-19T02:16:15;94658.50;;;4.40;78.21
9538;BME280;4807;48.024;11.726;2023-03-19T02:19:30;94655.06;;;4.31;78.09
9538;BME280;4807;48.024;11.726;2023-03-19T02:22:51;94646.38;;;4.22;78.02
9538;BME280;4807;48.024;11.726;2023-03-19T02:26:07;94649.56;;;4.10;77.89
9538;BME280;4807;48.024;11.726;2023-03-19T02:29:16;94642.50;;;3.94;78.74
9538;BME280;4807;48.024;11.726;2023-03-19T02:32:25;94644.47;;;4.00;78.66
9538;BME280;4807;48.024;11.726;2023-03-19T02:35:36;94651.38;;;4.09;78.24
9538;BME280;4807;48.024;11.726;2023-03-19T02:38:46;94662.41;;;4.13;78.12
9538;BME280;4807;48.024;11.726;2023-03-19T02:41:58;94655.50;;;4.04;78.97
9538;BME280;4807;48.024;11.726;2023-03-19T02:45:10;94659.97;;;3.95;79.57
9538;BME280;4807;48.024;11.726;2023-03-19T02:48:19;94658.47;;;4.01;79.64
9538;BME280;4807;48.024;11.726;2023-03-19T02:51:27;94658.59;;;4.07;79.31
9538;BME280;4807;48.024;11.726;2023-03-19T02:54:36;94667.69;;;4.05;78.99
9538;BME280;4807;48.024;11.726;2023-03-19T02:57:46;94662.59;;;4.03;79.09
9538;BME280;4807;48.024;11.726;2023-03-19T03:00:54;94668.19;;;4.00;78.56
9538;BME280;4807;48.024;11.726;2023-03-19T03:04:03;94664.88;;;3.98;78.92
9538;BME280;4807;48.024;11.726;2023-03-19T03:07:12;94664.88;;;3.98;79.04
9538;BME280;4807;48.024;11.726;2023-03-19T03:10:20;94665.50;;;4.16;77.83
9538;BME280;4807;48.024;11.726;2023-03-19T03:13:30;94668.69;;;3.88;79.61
9538;BME280;4807;48.024;11.726;2023-03-19T03:16:40;94675.94;;;3.94;79.61
9538;BME280;4807;48.024;11.726;2023-03-19T03:19:49;94681.31;;;4.08;79.22
9538;BME280;4807;48.024;11.726;2023-03-19T03:22:58;94684.13;;;4.07;78.38
9538;BME280;4807;48.024;11.726;2023-03-19T03:26:06;94683.00;;;3.93;79.43
9538;BME280;4807;48.024;11.726;2023-03-19T03:29:16;94684.34;;;3.97;79.12
9538;BME280;4807;48.024;11.726;2023-03-19T03:32:24;94684.59;;;4.18;78.27
9538;BME280;4807;48.024;11.726;2023-03-19T03:35:33;94685.94;;;4.06;78.41
9538;BME280;4807;48.024;11.726;2023-03-19T03:38:41;94681.00;;;4.11;78.25
9538;BME280;4807;48.024;11.726;2023-03-19T03:41:51;94685.47;;;3.95;78.36
9538;BME280;4807;48.024;11.726;2023-03-19T03:45:01;94701.13;;;3.80;79.16
9538;BME280;4807;48.024;11.726;2023-03-19T03:48:09;94699.13;;;3.90;78.75
9538;BME280;4807;48.024;11.726;2023-03-19T03:51:18;94702.28;;;3.86;78.25
9538;BME280;4807;48.024;11.726;2023-03-19T03:54:28;94698.66;;;3.95;78.96
9538;BME280;4807;48.024;11.726;2023-03-19T03:57:36;94706.56;;;3.95;78.76
9538;BME280;4807;48.024;11.726;2023-03-19T04:00:45;94709.34;;;4.01;78.80
9538;BME280;4807;48.024;11.726;2023-03-19T04:03:54;94703.09;;;4.02;78.19
9538;BME280;4807;48.024;11.726;2023-03-19T04:07:03;94703.88;;;4.19;78.04
9538;BME280;4807;48.024;11.726;2023-03-19T04:10:23;94712.44;;;4.21;77.44
9538;BME280;4807;48.024;11.726;2023-03-19T04:13:31;94698.75;;;4.26;77.90
9538;BME280;4807;48.024;11.726;2023-03-19T04:16:45;94716.53;;;4.23;78.19
9538;BME280;4807;48.024;11.726;2023-03-19T04:19:54;94720.34;;;4.21;77.86
9538;BME280;4807;48.024;11.726;2023-03-19T04:23:02;94717.50;;;4.31;77.12
9538;BME280;4807;48.024;11.726;2023-03-19T04:26:10;94712.09;;;4.24;77.87
9538;BME280;4807;48.024;11.726;2023-03-19T04:29:20;94721.16;;;4.30;77.89
9538;BME280;4807;48.024;11.726;2023-03-19T04:32:31;94716.34;;;4.33;77.72
9538;BME280;4807;48.024;11.726;2023-03-19T04:35:41;94723.78;;;4.38;77.12
9538;BME280;4807;48.024;11.726;2023-03-19T04:38:49;94727.03;;;4.40;77.60
9538;BME280;4807;48.024;11.726;2023-03-19T04:41:59;94728.53;;;4.42;77.26
9538;BME280;4807;48.024;11.726;2023-03-19T04:45:17;94724.06;;;4.51;77.09
9538;BME280;4807;48.024;11.726;2023-03-19T04:48:26;94727.34;;;4.53;76.96
9538;BME280;4807;48.024;11.726;2023-03-19T04:51:34;94727.34;;;4.61;76.45
9538;BME280;4807;48.024;11.726;2023-03-19T04:54:43;94730.47;;;4.56;76.73
9538;BME280;4807;48.024;11.726;2023-03-19T04:57:51;94736.56;;;4.57;77.08
9538;BME280;4807;48.024;11.726;2023-03-19T05:01:05;94740.81;;;4.66;76.56
9538;BME280;4807;48.024;11.726;2023-03-19T05:04:37;94729.59;;;4.64;76.47
9538;BME280;4807;48.024;11.726;2023-03-19T05:07:49;94735.38;;;4.68;76.88
9538;BME280;4807;48.024;11.726;2023-03-19T05:10:58;94734.56;;;4.67;76.53
9538;BME280;4807;48.024;11.726;2023-03-19T05:14:11;94742.78;;;4.64;76.80
9538;BME280;4807;48.024;11.726;2023-03-19T05:17:43;94747.44;;;4.62;77.02
9538;BME280;4807;48.024;11.726;2023-03-19T05:21:00;94754.59;;;4.84;76.83
9538;BME280;4807;48.024;11.726;2023-03-19T05:24:10;94760.91;;;4.67;77.98
9538;BME280;4807;48.024;11.726;2023-03-19T05:27:19;94760.88;;;4.83;77.00
9538;BME280;4807;48.024;11.726;2023-03-19T05:30:35;94759.25;;;4.74;77.20
9538;BME280;4807;48.024;11.726;2023-03-19T05:33:48;94770.28;;;4.78;77.56
9538;BME280;4807;48.024;11.726;2023-03-19T05:36:58;94775.38;;;4.79;77.83
9538;BME280;4807;48.024;11.726;2023-03-19T05:40:08;94782.31;;;4.80;78.04
9538;BME280;4807;48.024;11.726;2023-03-19T05:43:20;94780.97;;;4.92;77.52
9538;BME280;4807;48.024;11.726;2023-03-19T05:46:29;94794.56;;;5.12;77.25
9538;BME280;4807;48.024;11.726;2023-03-19T05:49:38;94789.97;;;5.37;76.58
9538;BME280;4807;48.024;11.726;2023-03-19T05:52:47;94792.84;;;5.58;76.83
9538;BME280;4807;48.024;11.726;2023-03-19T05:55:56;94795.16;;;5.84;76.88
9538;BME280;4807;48.024;11.726;2023-03-19T05:59:06;94803.69;;;6.17;76.11
9538;BME280;4807;48.024;11.726;2023-03-19T06:02:19;94802.88;;;6.54;75.07
9538;BME280;4807;48.024;11.726;2023-03-19T06:05:30;94808.75;;;6.79;74.18
9538;BME280;4807;48.024;11.726;2023-03-19T06:08:47;94812.97;;;7.17;72.98
9538;BME280;4807;48.024;11.726;2023-03-19T06:12:03;94816.44;;;7.33;72.79
9538;BME280;4807;48.024;11.726;2023-03-19T06:15:30;94828.53;;;7.56;72.02
9538;BME280;4807;48.024;11.726;2023-03-19T06:18:44;94829.66;;;7.62;71.79
9538;BME280;4807;48.024;11.726;2023-03-19T06:21:54;94829.69;;;7.83;70.93
9538;BME280;4807;48.024;11.726;2023-03-19T06:25:05;94832.47;;;7.96;71.70
9538;BME280;4807;48.024;11.726;2023-03-19T06:28:16;94842.66;;;8.14;70.24
9538;BME280;4807;48.024;11.726;2023-03-19T06:31:25;94847.66;;;8.24;69.88
9538;BME280;4807;48.024;11.726;2023-03-19T06:34:39;94855.25;;;8.27;70.16
9538;BME280;4807;48.024;11.726;2023-03-19T06:37:48;94863.72;;;8.37;69.68
9538;BME280;4807;48.024;11.726;2023-03-19T06:40:58;94867.28;;;8.29;69.75
9538;BME280;4807;48.024;11.726;2023-03-19T06:44:06;94875.34;;;8.36;70.49
9538;BME280;4807;48.024;11.726;2023-03-19T06:47:15;94872.56;;;8.44;69.60
9538;BME280;4807;48.024;11.726;2023-03-19T06:50:24;94879.16;;;8.48;69.59
9538;BME280;4807;48.024;11.726;2023-03-19T06:53:33;94879.16;;;8.48;69.78
9538;BME280;4807;48.024;11.726;2023-03-19T06:56:43;94879.06;;;8.63;69.28
9538;BME280;4807;48.024;11.726;2023-03-19T06:59:52;94886.28;;;8.69;69.59
9538;BME280;4807;48.024;11.726;2023-03-19T07:03:00;94900.41;;;8.76;68.73
9538;BME280;4807;48.024;11.726;2023-03-19T07:06:08;94903.72;;;8.78;69.70
9538;BME280;4807;48.024;11.726;2023-03-19T07:09:16;94910.53;;;8.87;69.56
9538;BME280;4807;48.024;11.726;2023-03-19T07:12:26;94919.25;;;9.02;68.69
9538;BME280;4807;48.024;11.726;2023-03-19T07:15:35;94925.28;;;9.17;68.71
9538;BME280;4807;48.024;11.726;2023-03-19T07:18:43;94928.25;;;9.29;67.39
9538;BME280;4807;48.024;11.726;2023-03-19T07:21:51;94930.13;;;9.35;68.05
9538;BME280;4807;48.024;11.726;2023-03-19T07:24:59;94937.09;;;9.36;68.25
9538;BME280;4807;48.024;11.726;2023-03-19T07:28:09;94945.91;;;9.43;67.81
9538;BME280;4807;48.024;11.726;2023-03-19T07:31:17;94952.06;;;9.44;67.71
9538;BME280;4807;48.024;11.726;2023-03-19T07:34:26;94963.88;;;9.41;68.11
9538;BME280;4807;48.024;11.726;2023-03-19T07:37:34;94966.41;;;9.49;68.01
9538;BME280;4807;48.024;11.726;2023-03-19T07:40:43;94963.13;;;9.47;68.19
9538;BME280;4807;48.024;11.726;2023-03-19T07:44:08;94969.53;;;9.60;68.24
9538;BME280;4807;48.024;11.726;2023-03-19T07:47:20;94972.53;;;9.50;68.16
9538;BME280;4807;48.024;11.726;2023-03-19T07:50:35;94976.72;;;9.66;68.17
9538;BME280;4807;48.024;11.726;2023-03-19T07:53:44;94970.28;;;9.81;67.24
9538;BME280;4807;48.024;11.726;2023-03-19T07:56:52;94967.63;;;9.81;67.54
9538;BME280;4807;48.024;11.726;2023-03-19T08:00:02;94973.81;;;9.88;68.24
9538;BME280;4807;48.024;11.726;2023-03-19T08:03:19;94969.13;;;9.90;68.26
9538;BME280;4807;48.024;11.726;2023-03-19T08:06:27;94960.78;;;10.00;67.28
9538;BME280;4807;48.024;11.726;2023-03-19T08:09:37;94966.72;;;10.02;67.36
9538;BME280;4807;48.024;11.726;2023-03-19T08:12:45;94966.06;;;10.21;67.48
9538;BME280;4807;48.024;11.726;2023-03-19T08:15:56;94960.78;;;10.35;67.49
9538;BME280;4807;48.024;11.726;2023-03-19T08:19:04;94965.28;;;10.41;66.75
9538;BME280;4807;48.024;11.726;2023-03-19T08:22:13;94962.50;;;10.62;67.01
9538;BME280;4807;48.024;11.726;2023-03-19T08:25:21;94964.81;;;10.91;66.51
9538;BME280;4807;48.024;11.726;2023-03-19T08:28:29;94959.72;;;11.23;65.77
9538;BME280;4807;48.024;11.726;2023-03-19T08:31:40;94964.66;;;11.39;65.35
9538;BME280;4807;48.024;11.726;2023-03-19T08:34:48;94961.16;;;11.58;64.24
9538;BME280;4807;48.024;11.726;2023-03-19T08:37:57;94965.47;;;11.46;64.87
9538;BME280;4807;48.024;11.726;2023-03-19T08:41:07;94973.28;;;11.80;63.86
9538;BME280;4807;48.024;11.726;2023-03-19T08:44:15;94970.31;;;12.08;62.38
9538;BME280;4807;48.024;11.726;2023-03-19T08:47:25;94983.47;;;12.10;62.70
9538;BME280;4807;48.024;11.726;2023-03-19T08:50:33;94980.59;;;12.11;62.20
9538;BME280;4807;48.024;11.726;2023-03-19T08:53:42;94990.50;;;11.84;62.46
9538;BME280;4807;48.024;11.726;2023-03-19T08:56:50;94986.19;;;11.57;62.72
9538;BME280;4807;48.024;11.726;2023-03-19T08:59:59;94991.31;;;11.52;63.48
9538;BME280;4807;48.024;11.726;2023-03-19T09:03:09;94992.13;;;11.46;63.57
9538;BME280;4807;48.024;11.726;2023-03-19T09:06:17;94995.63;;;11.46;63.32
9538;BME280;4807;48.024;11.726;2023-03-19T09:09:25;94995.19;;;11.63;63.60
9538;BME280;4807;48.024;11.726;2023-03-19T09:12:34;94992.53;;;11.76;62.58
9538;BME280;4807;48.024;11.726;2023-03-19T09:15:42;94992.13;;;11.99;61.69
9538;BME280;4807;48.024;11.726;2023-03-19T09:18:52;94996.81;;;12.03;61.81
9538;BME280;4807;48.024;11.726;2023-03-19T09:22:04;95004.00;;;12.16;60.90
9538;BME280;4807;48.024;11.726;2023-03-19T09:25:13;95008.50;;;12.15;61.46
9538;BME280;4807;48.024;11.726;2023-03-19T09:28:21;95009.16;;;11.98;62.14
9538;BME280;4807;48.024;11.726;2023-03-19T09:31:30;95006.91;;;11.95;61.38
9538;BME280;4807;48.024;11.726;2023-03-19T09:34:39;94997.84;;;12.15;61.88
9538;BME280;4807;48.024;11.726;2023-03-19T09:37:48;95003.31;;;12.34;60.62
9538;BME280;4807;48.024;11.726;2023-03-19T09:41:08;95000.59;;;12.53;60.33
9538;BME280;4807;48.024;11.726;2023-03-19T09:44:26;95006.78;;;12.92;60.71
9538;BME280;4807;48.024;11.726;2023-03-19T09:47:36;95015.34;;;13.45;57.92
9538;BME280;4807;48.024;11.726;2023-03-19T09:50:49;95022.28;;;13.53;58.58
9538;BME280;4807;48.024;11.726;2023-03-19T09:54:01;95016.31;;;13.75;57.62
9538;BME280;4807;48.024;11.726;2023-03-19T09:57:12;95021.81;;;13.56;58.20
9538;BME280;4807;48.024;11.726;2023-03-19T10:00:24;95020.53;;;13.65;57.95
9538;BME280;4807;48.024;11.726;2023-03-19T10:03:45;95020.97;;;13.30;58.08
9538;BME280;4807;48.024;11.726;2023-03-19T10:07:09;95019.34;;;13.29;57.23
9538;BME280;4807;48.024;11.726;2023-03-19T10:10:40;95011.91;;;13.31;57.92
9538;BME280;4807;48.024;11.726;2023-03-19T10:14:16;95010.00;;;13.70;58.05
9538;BME280;4807;48.024;11.726;2023-03-19T10:17:33;94999.31;;;13.88;56.61
9538;BME280;4807;48.024;11.726;2023-03-19T10:20:54;95005.13;;;13.85;56.53
9538;BME280;4807;48.024;11.726;2023-03-19T10:24:12;95000.81;;;13.59;57.91
9538;BME280;4807;48.024;11.726;2023-03-19T10:27:26;95001.44;;;13.80;57.34
9538;BME280;4807;48.024;11.726;2023-03-19T10:30:36;94994.28;;;13.98;55.88
9538;BME280;4807;48.024;11.726;2023-03-19T10:33:52;95001.69;;;14.21;56.82
9538;BME280;4807;48.024;11.726;2023-03-19T10:37:12;95010.59;;;14.40;55.56
9538;BME280;4807;48.024;11.726;2023-03-19T10:40:32;95002.47;;;14.65;54.21
9538;BME280;4807;48.024;11.726;2023-03-19T10:43:51;95004.59;;;14.38;54.60
9538;BME280;4807;48.024;11.726;2023-03-19T10:47:11;95013.16;;;13.85;56.12
9538;BME280;4807;48.024;11.726;2023-03-19T10:50:28;95003.25;;;12.53;60.04
9538;BME280;4807;48.024;11.726;2023-03-19T10:53:38;95002.63;;;12.51;60.50
9538;BME280;4807;48.024;11.726;2023-03-19T10:56:50;94993.41;;;13.61;58.16
9538;BME280;4807;48.024;11.726;2023-03-19T11:00:04;95001.41;;;13.86;56.12
9538;BME280;4807;48.024;11.726;2023-03-19T11:03:30;95001.56;;;13.91;56.61
9538;BME280;4807;48.024;11.726;2023-03-19T11:06:39;94998.03;;;13.72;55.87
9538;BME280;4807;48.024;11.726;2023-03-19T11:09:49;95002.56;;;13.16;57.81
9538;BME280;4807;48.024;11.726;2023-03-19T11:13:04;94997.47;;;13.64;56.00
9538;BME280;4807;48.024;11.726;2023-03-19T11:16:13;94999.91;;;13.41;57.18
9538;BME280;4807;48.024;11.726;2023-03-19T11:19:26;94996.44;;;13.90;55.75
9538;BME280;4807;48.024;11.726;2023-03-19T11:22:36;94998.75;;;14.04;54.88
9538;BME280;4807;48.024;11.726;2023-03-19T11:25:49;94998.63;;;13.18;57.69
9538;BME280;4807;48.024;11.726;2023-03-19T11:29:03;94994.06;;;12.36;60.06
9538;BME280;4807;48.024;11.726;2023-03-19T11:32:39;94984.50;;;12.67;59.10
9538;BME280;4807;48.024;11.726;2023-03-19T11:36:03;94985.13;;;13.13;58.17
9538;BME280;4807;48.024;11.726;2023-03-19T11:39:26;94985.91;;;13.07;58.19
9538;BME280;4807;48.024;11.726;2023-03-19T11:42:59;94976.22;;;13.94;55.57
9538;BME280;4807;48.024;11.726;2023-03-19T11:46:35;94978.56;;;14.45;53.79
9538;BME280;4807;48.024;11.726;2023-03-19T11:50:01;94961.88;;;15.09;52.13
9538;BME280;4807;48.024;11.726;2023-03-19T11:56:47;94953.25;;;14.23;53.73
9538;BME280;4807;48.024;11.726;2023-03-19T12:00:12;94954.88;;;13.62;57.28
9538;BME280;4807;48.024;11.726;2023-03-19T12:07:37;94943.22;;;13.57;55.70
9538;BME280;4807;48.024;11.726;2023-03-19T12:11:02;94947.25;;;13.66;56.01
9538;BME280;4807;48.024;11.726;2023-03-19T12:14:40;94937.34;;;14.09;55.57
9538;BME280;4807;48.024;11.726;2023-03-19T12:18:05;94931.03;;;14.88;53.09
9538;BME280;4807;48.024;11.726;2023-03-19T12:21:25;94929.97;;;14.23;52.94
9538;BME280;4807;48.024;11.726;2023-03-19T12:24:59;94933.72;;;13.79;52.28
9538;BME280;4807;48.024;11.726;2023-03-19T12:28:19;94927.34;;;14.71;52.49
9538;BME280;4807;48.024;11.726;2023-03-19T12:31:46;94919.22;;;15.19;51.54
9538;BME280;4807;48.024;11.726;2023-03-19T12:35:02;94925.84;;;15.82;48.89
9538;BME280;4807;48.024;11.726;2023-03-19T12:38:23;94916.91;;;14.81;50.46
9538;BME280;4807;48.024;11.726;2023-03-19T12:41:41;94915.03;;;13.97;53.96
9538;BME280;4807;48.024;11.726;2023-03-19T12:44:53;94918.03;;;13.40;53.76
9538;BME280;4807;48.024;11.726;2023-03-19T12:48:07;94921.41;;;13.04;53.70
9538;BME280;4807;48.024;11.726;2023-03-19T12:51:22;94910.91;;;13.02;53.50
9538;BME280;4807;48.024;11.726;2023-03-19T12:54:38;94911.69;;;13.09;54.90
9538;BME280;4807;48.024;11.726;2023-03-19T12:57:53;94911.53;;;13.04;51.68
9538;BME280;4807;48.024;11.726;2023-03-19T13:01:10;94896.09;;;13.31;56.62
9538;BME280;4807;48.024;11.726;2023-03-19T13:04:24;94900.16;;;13.09;54.91
9538;BME280;4807;48.024;11.726;2023-03-19T13:07:45;94885.13;;;13.14;52.37
9538;BME280;4807;48.024;11.726;2023-03-19T13:10:58;94891.06;;;13.66;50.31
9538;BME280;4807;48.024;11.726;2023-03-19T13:14:17;94889.91;;;14.17;51.19
9538;BME280;4807;48.024;11.726;2023-03-19T13:17:38;94891.97;;;14.14;49.12
9538;BME280;4807;48.024;11.726;2023-03-19T13:21:04;94893.31;;;14.05;48.88
9538;BME280;4807;48.024;11.726;2023-03-19T13:24:24;94890.94;;;14.34;48.03
9538;BME280;4807;48.024;11.726;2023-03-19T13:27:35;94890.59;;;14.60;47.05
9538;BME280;4807;48.024;11.726;2023-03-19T13:30:59;94890.28;;;15.10;45.20
9538;BME280;4807;48.024;11.726;2023-03-19T13:34:25;94887.06;;;15.31;45.87
9538;BME280;4807;48.024;11.726;2023-03-19T13:37:34;94880.75;;;15.14;45.69
9538;BME280;4807;48.024;11.726;2023-03-19T13:40:48;94875.00;;;15.63;44.75
9538;BME280;4807;48.024;11.726;2023-03-19T13:43:56;94880.56;;;15.74;45.29
9538;BME280;4807;48.024;11.726;2023-03-19T13:47:38;94874.75;;;14.59;47.48
9538;BME280;4807;48.024;11.726;2023-03-19T13:50:54;94879.41;;;14.33;48.03
9538;BME280;4807;48.024;11.726;2023-03-19T13:54:15;94873.16;;;14.21;49.94
9538;BME280;4807;48.024;11.726;2023-03-19T13:57:35;94878.25;;;14.89;47.52
9538;BME280;4807;48.024;11.726;2023-03-19T14:00:56;94875.97;;;14.26;48.47
9538;BME280;4807;48.024;11.726;2023-03-19T14:04:18;94880.22;;;14.16;48.44
9538;BME280;4807;48.024;11.726;2023-03-19T14:07:34;94873.41;;;13.83;48.52
9538;BME280;4807;48.024;11.726;2023-03-19T14:10:47;94869.22;;;14.05;48.04
9538;BME280;4807;48.024;11.726;2023-03-19T14:14:02;94873.97;;;13.67;49.00
9538;BME280;4807;48.024;11.726;2023-03-19T14:17:14;94870.84;;;13.88;49.40
9538;BME280;4807;48.024;11.726;2023-03-19T14:20:27;94870.63;;;13.90;47.57
9538;BME280;4807;48.024;11.726;2023-03-19T14:23:53;94870.09;;;13.81;48.77
9538;BME280;4807;48.024;11.726;2023-03-19T14:27:14;94873.75;;;13.68;48.54
9538;BME280;4807;48.024;11.726;2023-03-19T14:30:30;94863.09;;;13.44;49.05
9538;BME280;4807;48.024;11.726;2023-03-19T14:33:44;94855.97;;;13.56;48.68
9538;BME280;4807;48.024;11.726;2023-03-19T14:37:02;94857.09;;;13.66;50.68
9538;BME280;4807;48.024;11.726;2023-03-19T14:40:16;94857.69;;;14.05;49.67
9538;BME280;4807;48.024;11.726;2023-03-19T14:43:51;94849.91;;;14.51;47.36
9538;BME280;4807;48.024;11.726;2023-03-19T14:47:25;94849.28;;;15.21;46.01
9538;BME280;4807;48.024;11.726;2023-03-19T14:51:34;94835.97;;;15.26;45.67
9538;BME280;4807;48.024;11.726;2023-03-19T14:54:53;94833.28;;;15.49;45.28
9538;BME280;4807;48.024;11.726;2023-03-19T14:58:03;94837.59;;;15.50;45.65
9538;BME280;4807;48.024;11.726;2023-03-19T15:01:12;94835.19;;;15.60;44.29
9538;BME280;4807;48.024;11.726;2023-03-19T15:04:24;94837.03;;;15.48;44.28
9538;BME280;4807;48.024;11.726;2023-03-19T15:07:36;94834.34;;;15.25;44.59
9538;BME280;4807;48.024;11.726;2023-03-19T15:10:58;94831.81;;;15.53;43.49
9538;BME280;4807;48.024;11.726;2023-03-19T15:14:35;94827.47;;;15.52;44.45
9538;BME280;4807;48.024;11.726;2023-03-19T15:17:58;94831.91;;;15.47;44.50
9538;BME280;4807;48.024;11.726;2023-03-19T15:21:11;94836.09;;;15.43;44.23
9538;BME280;4807;48.024;11.726;2023-03-19T15:24:19;94827.22;;;15.19;44.62
9538;BME280;4807;48.024;11.726;2023-03-19T15:27:29;94835.72;;;15.04;45.29
9538;BME280;4807;48.024;11.726;2023-03-19T15:30:38;94828.16;;;15.24;44.97
9538;BME280;4807;48.024;11.726;2023-03-19T15:34:18;94830.25;;;15.34;44.99
9538;BME280;4807;48.024;11.726;2023-03-19T15:37:31;94835.75;;;15.16;44.87
9538;BME280;4807;48.024;11.726;2023-03-19T15:40:40;94827.69;;;15.16;44.92
9538;BME280;4807;48.024;11.726;2023-03-19T15:43:50;94823.69;;;14.95;45.60
9538;BME280;4807;48.024;11.726;2023-03-19T15:47:04;94826.72;;;14.87;45.68
9538;BME280;4807;48.024;11.726;2023-03-19T15:50:18;94820.75;;;14.73;45.31
9538;BME280;4807;48.024;11.726;2023-03-19T15:53:33;94819.09;;;14.72;45.11
9538;BME280;4807;48.024;11.726;2023-03-19T15:56:42;94819.81;;;14.79;45.66
9538;BME280;4807;48.024;11.726;2023-03-19T15:59:54;94818.34;;;14.83;46.08
9538;BME280;4807;48.024;11.726;2023-03-19T16:03:05;94819.56;;;14.69;45.09
9538;BME280;4807;48.024;11.726;2023-03-19T16:06:20;94823.16;;;14.63;45.56
9538;BME280;4807;48.024;11.726;2023-03-19T16:09:33;94823.47;;;14.55;46.77
9538;BME280;4807;48.024;11.726;2023-03-19T16:12:48;94831.72;;;14.42;48.01
9538;BME280;4807;48.024;11.726;2023-03-19T16:16:05;94837.53;;;14.39;48.36
9538;BME280;4807;48.024;11.726;2023-03-19T16:19:33;94835.56;;;14.46;46.64
9538;BME280;4807;48.024;11.726;2023-03-19T16:22:51;94837.19;;;14.29;46.75
9538;BME280;4807;48.024;11.726;2023-03-19T16:26:18;94838.66;;;14.13;48.42
9538;BME280;4807;48.024;11.726;2023-03-19T16:29:33;94846.03;;;13.99;48.34
9538;BME280;4807;48.024;11.726;2023-03-19T16:32:57;94855.09;;;13.80;48.48
9538;BME280;4807;48.024;11.726;2023-03-19T16:36:11;94853.00;;;13.64;49.62
9538;BME280;4807;48.024;11.726;2023-03-19T16:39:31;94866.81;;;13.43;50.27
9538;BME280;4807;48.024;11.726;2023-03-19T16:42:41;94860.03;;;13.15;51.27
9538;BME280;4807;48.024;11.726;2023-03-19T16:46:02;94867.50;;;13.13;51.31
9538;BME280;4807;48.024;11.726;2023-03-19T16:49:12;94872.47;;;13.03;51.59
9538;BME280;4807;48.024;11.726;2023-03-19T16:52:23;94870.13;;;12.88;52.22
9538;BME280;4807;48.024;11.726;2023-03-19T16:55:34;94869.72;;;12.85;53.18
9538;BME280;4807;48.024;11.726;2023-03-19T16:58:43;94879.28;;;12.68;54.32
9538;BME280;4807;48.024;11.726;2023-03-19T17:01:54;94870.97;;;12.51;53.88
9538;BME280;4807;48.024;11.726;2023-03-19T17:05:11;94883.94;;;12.41;54.76
9538;BME280;4807;48.024;11.726;2023-03-19T17:08:19;94878.31;;;12.24;55.13
9538;BME280;4807;48.024;11.726;2023-03-19T17:11:33;94877.69;;;12.22;55.42
9538;BME280;4807;48.024;11.726;2023-03-19T17:14:43;94891.56;;;11.93;56.77
9538;BME280;4807;48.024;11.726;2023-03-19T17:17:52;94894.47;;;11.78;57.48
9538;BME280;4807;48.024;11.726;2023-03-19T17:21:06;94900.03;;;11.63;58.66
9538;BME280;4807;48.024;11.726;2023-03-19T17:24:23;94894.94;;;11.48;59.62
9538;BME280;4807;48.024;11.726;2023-03-19T17:27:32;94905.41;;;11.30;59.54
9538;BME280;4807;48.024;11.726;2023-03-19T17:30:40;94899.06;;;11.18;60.44
9538;BME280;4807;48.024;11.726;2023-03-19T17:33:49;94906.84;;;11.06;60.95